sensor_id;sensor_type;location;lat;lon;timestamp;P1;durP1;ratioP1;P2;durP2;ratioP2
21786;SDS011;11055;50.870;4.316;2023-06-10T00:01:37;10.73;;;6.78;;
21786;SDS011;11055;50.870;4.316;2023-06-10T00:04:03;10.55;;;7.03;;
21786;SDS011;11055;50.870;4.316;2023-06-10T00:06:29;7.32;;;6.43;;
21786;SDS011;11055;50.870;4.316;2023-06-10T00:09:04;8.70;;;7.05;;
21786;SDS011;11055;50.870;4.316;2023-06-10T00:11:31;7.80;;;6.47;;
21786;SDS011;11055;50.870;4.316;2023-06-10T00:13:57;12.63;;;7.30;;
21786;SDS011;11055;50.870;4.316;2023-06-10T00:16:23;10.32;;;7.25;;
21786;SDS011;11055;50.870;4.316;2023-06-10T00:18:49;7.35;;;6.68;;
21786;SDS011;11055;50.870;4.316;2023-06-10T00:21:16;8.65;;;6.78;;
21786;SDS011;11055;50.870;4.316;2023-06-10T00:23:42;11.55;;;7.40;;
21786;SDS011;11055;50.870;4.316;2023-06-10T00:26:08;8.95;;;7.47;;
21786;SDS011;11055;50.870;4.316;2023-06-10T00:28:34;10.68;;;7.07;;
21786;SDS011;11055;50.870;4.316;2023-06-10T00:31:00;9.63;;;7.25;;
21786;SDS011;11055;50.870;4.316;2023-06-10T00:33:27;11.10;;;6.68;;
21786;SDS011;11055;50.870;4.316;2023-06-10T00:35:53;8.00;;;7.13;;
21786;SDS011;11055;50.870;4.316;2023-06-10T00:38:18;8.48;;;6.72;;
21786;SDS011;11055;50.870;4.316;2023-06-10T00:40:44;8.93;;;7.45;;
21786;SDS011;11055;50.870;4.316;2023-06-10T00:43:10;8.73;;;7.00;;
21786;SDS011;11055;50.870;4.316;2023-06-10T00:45:35;8.63;;;7.70;;
21786;SDS011;11055;50.870;4.316;2023-06-10T00:48:01;9.65;;;7.15;;
21786;SDS011;11055;50.870;4.316;2023-06-10T00:50:28;8.27;;;7.47;;
21786;SDS011;11055;50.870;4.316;2023-06-10T00:52:56;8.48;;;7.38;;
21786;SDS011;11055;50.870;4.316;2023-06-10T00:55:22;7.30;;;6.60;;
21786;SDS011;11055;50.870;4.316;2023-06-10T00:57:49;8.00;;;7.20;;
21786;SDS011;11055;50.870;4.316;2023-06-10T01:00:16;7.68;;;6.97;;
21786;SDS011;11055;50.870;4.316;2023-06-10T01:02:42;8.80;;;6.93;;
21786;SDS011;11055;50.870;4.316;2023-06-10T01:05:08;7.97;;;7.18;;
21786;SDS011;11055;50.870;4.316;2023-06-10T01:07:38;9.20;;;7.40;;
21786;SDS011;11055;50.870;4.316;2023-06-10T01:10:55;9.15;;;7.70;;
21786;SDS011;11055;50.870;4.316;2023-06-10T01:13:03;13.77;;;7.43;;
21786;SDS011;11055;50.870;4.316;2023-06-10T01:15:36;8.05;;;7.25;;
21786;SDS011;11055;50.870;4.316;2023-06-10T01:18:04;8.20;;;7.40;;
21786;SDS011;11055;50.870;4.316;2023-06-10T01:23:02;8.85;;;6.90;;
21786;SDS011;11055;50.870;4.316;2023-06-10T01:25:31;9.35;;;7.75;;
21786;SDS011;11055;50.870;4.316;2023-06-10T01:33:10;11.05;;;7.22;;
21786;SDS011;11055;50.870;4.316;2023-06-10T01:35:38;8.13;;;7.30;;
21786;SDS011;11055;50.870;4.316;2023-06-10T01:38:04;9.95;;;7.47;;
21786;SDS011;11055;50.870;4.316;2023-06-10T01:40:31;9.38;;;7.03;;
21786;SDS011;11055;50.870;4.316;2023-06-10T01:42:58;7.88;;;7.22;;
21786;SDS011;11055;50.870;4.316;2023-06-10T01:45:23;12.68;;;7.82;;
21786;SDS011;11055;50.870;4.316;2023-06-10T01:47:49;8.68;;;7.10;;
21786;SDS011;11055;50.870;4.316;2023-06-10T01:50:15;11.70;;;7.22;;
21786;SDS011;11055;50.870;4.316;2023-06-10T01:52:41;8.63;;;7.28;;
21786;SDS011;11055;50.870;4.316;2023-06-10T01:55:07;7.93;;;7.13;;
21786;SDS011;11055;50.870;4.316;2023-06-10T01:57:33;11.45;;;7.10;;
21786;SDS011;11055;50.870;4.316;2023-06-10T01:59:59;8.73;;;7.78;;
21786;SDS011;11055;50.870;4.316;2023-06-10T02:02:24;9.85;;;7.47;;
21786;SDS011;11055;50.870;4.316;2023-06-10T02:04:50;9.45;;;8.45;;
21786;SDS011;11055;50.870;4.316;2023-06-10T02:07:15;8.52;;;7.70;;
21786;SDS011;11055;50.870;4.316;2023-06-10T02:09:41;8.55;;;7.45;;
21786;SDS011;11055;50.870;4.316;2023-06-10T02:12:07;10.48;;;7.80;;
21786;SDS011;11055;50.870;4.316;2023-06-10T02:14:33;9.68;;;7.55;;
21786;SDS011;11055;50.870;4.316;2023-06-10T02:16:59;8.63;;;7.82;;
21786;SDS011;11055;50.870;4.316;2023-06-10T02:19:25;10.77;;;7.80;;
21786;SDS011;11055;50.870;4.316;2023-06-10T02:21:51;8.50;;;7.60;;
21786;SDS011;11055;50.870;4.316;2023-06-10T02:24:17;8.40;;;7.32;;
21786;SDS011;11055;50.870;4.316;2023-06-10T02:26:43;9.55;;;7.75;;
21786;SDS011;11055;50.870;4.316;2023-06-10T02:29:10;9.75;;;7.75;;
21786;SDS011;11055;50.870;4.316;2023-06-10T02:31:36;8.85;;;7.60;;
21786;SDS011;11055;50.870;4.316;2023-06-10T02:34:02;8.73;;;7.93;;
21786;SDS011;11055;50.870;4.316;2023-06-10T02:36:29;10.07;;;8.10;;
21786;SDS011;11055;50.870;4.316;2023-06-10T02:38:54;10.75;;;8.35;;
21786;SDS011;11055;50.870;4.316;2023-06-10T02:41:20;8.77;;;7.97;;
21786;SDS011;11055;50.870;4.316;2023-06-10T02:43:46;11.55;;;7.70;;
21786;SDS011;11055;50.870;4.316;2023-06-10T02:46:12;8.93;;;8.13;;
21786;SDS011;11055;50.870;4.316;2023-06-10T02:48:41;9.65;;;7.85;;
21786;SDS011;11055;50.870;4.316;2023-06-10T02:51:11;9.38;;;8.25;;
21786;SDS011;11055;50.870;4.316;2023-06-10T02:53:37;8.68;;;7.88;;
21786;SDS011;11055;50.870;4.316;2023-06-10T02:56:02;9.77;;;8.20;;
21786;SDS011;11055;50.870;4.316;2023-06-10T02:58:28;10.10;;;8.27;;
21786;SDS011;11055;50.870;4.316;2023-06-10T03:00:54;15.13;;;8.15;;
21786;SDS011;11055;50.870;4.316;2023-06-10T03:03:20;9.25;;;8.23;;
21786;SDS011;11055;50.870;4.316;2023-06-10T03:05:47;11.23;;;7.75;;
21786;SDS011;11055;50.870;4.316;2023-06-10T03:08:13;10.73;;;8.38;;
21786;SDS011;11055;50.870;4.316;2023-06-10T03:10:39;9.88;;;7.85;;
21786;SDS011;11055;50.870;4.316;2023-06-10T03:13:05;8.65;;;7.57;;
21786;SDS011;11055;50.870;4.316;2023-06-10T03:15:30;10.65;;;8.52;;
21786;SDS011;11055;50.870;4.316;2023-06-10T03:17:58;9.02;;;8.13;;
21786;SDS011;11055;50.870;4.316;2023-06-10T03:20:25;9.20;;;8.15;;
21786;SDS011;11055;50.870;4.316;2023-06-10T03:22:52;8.98;;;8.23;;
21786;SDS011;11055;50.870;4.316;2023-06-10T03:25:18;8.73;;;7.82;;
21786;SDS011;11055;50.870;4.316;2023-06-10T03:27:45;10.48;;;8.65;;
21786;SDS011;11055;50.870;4.316;2023-06-10T03:30:12;10.82;;;8.68;;
21786;SDS011;11055;50.870;4.316;2023-06-10T03:32:39;9.48;;;8.57;;
21786;SDS011;11055;50.870;4.316;2023-06-10T03:35:06;9.73;;;8.73;;
21786;SDS011;11055;50.870;4.316;2023-06-10T03:37:32;11.40;;;8.55;;
21786;SDS011;11055;50.870;4.316;2023-06-10T03:39:58;9.93;;;8.90;;
21786;SDS011;11055;50.870;4.316;2023-06-10T03:42:23;9.23;;;8.32;;
21786;SDS011;11055;50.870;4.316;2023-06-10T03:44:50;9.45;;;8.48;;
21786;SDS011;11055;50.870;4.316;2023-06-10T03:47:15;11.35;;;8.10;;
21786;SDS011;11055;50.870;4.316;2023-06-10T03:49:41;9.50;;;8.38;;
21786;SDS011;11055;50.870;4.316;2023-06-10T03:52:07;14.75;;;8.93;;
21786;SDS011;11055;50.870;4.316;2023-06-10T03:54:33;10.32;;;8.77;;
21786;SDS011;11055;50.870;4.316;2023-06-10T03:57:00;11.82;;;8.85;;
21786;SDS011;11055;50.870;4.316;2023-06-10T03:59:25;11.63;;;8.57;;
21786;SDS011;11055;50.870;4.316;2023-06-10T04:01:51;9.68;;;8.68;;
21786;SDS011;11055;50.870;4.316;2023-06-10T04:04:17;11.98;;;8.93;;
21786;SDS011;11055;50.870;4.316;2023-06-10T04:06:43;12.30;;;9.40;;
21786;SDS011;11055;50.870;4.316;2023-06-10T04:09:09;10.23;;;9.23;;
21786;SDS011;11055;50.870;4.316;2023-06-10T04:11:35;11.68;;;9.20;;
21786;SDS011;11055;50.870;4.316;2023-06-10T04:14:01;12.85;;;9.40;;
21786;SDS011;11055;50.870;4.316;2023-06-10T04:16:27;9.93;;;8.93;;
21786;SDS011;11055;50.870;4.316;2023-06-10T04:18:53;9.93;;;8.45;;
21786;SDS011;11055;50.870;4.316;2023-06-10T04:21:18;11.45;;;8.93;;
21786;SDS011;11055;50.870;4.316;2023-06-10T04:23:44;11.63;;;9.55;;
21786;SDS011;11055;50.870;4.316;2023-06-10T04:26:10;10.73;;;9.63;;
21786;SDS011;11055;50.870;4.316;2023-06-10T04:28:37;9.68;;;8.68;;
21786;SDS011;11055;50.870;4.316;2023-06-10T04:31:03;10.48;;;9.32;;
21786;SDS011;11055;50.870;4.316;2023-06-10T04:33:29;12.93;;;9.88;;
21786;SDS011;11055;50.870;4.316;2023-06-10T04:35:55;11.27;;;10.20;;
21786;SDS011;11055;50.870;4.316;2023-06-10T04:38:21;12.07;;;9.55;;
21786;SDS011;11055;50.870;4.316;2023-06-10T04:40:47;11.85;;;9.70;;
21786;SDS011;11055;50.870;4.316;2023-06-10T04:43:13;11.52;;;9.27;;
21786;SDS011;11055;50.870;4.316;2023-06-10T04:45:39;11.10;;;9.57;;
21786;SDS011;11055;50.870;4.316;2023-06-10T04:48:04;10.23;;;9.20;;
21786;SDS011;11055;50.870;4.316;2023-06-10T04:50:31;11.43;;;9.18;;
21786;SDS011;11055;50.870;4.316;2023-06-10T04:52:58;14.68;;;9.65;;
21786;SDS011;11055;50.870;4.316;2023-06-10T04:55:23;11.57;;;9.52;;
21786;SDS011;11055;50.870;4.316;2023-06-10T04:57:50;11.52;;;9.85;;
21786;SDS011;11055;50.870;4.316;2023-06-10T05:00:16;12.00;;;9.50;;
21786;SDS011;11055;50.870;4.316;2023-06-10T05:02:42;10.30;;;9.27;;
21786;SDS011;11055;50.870;4.316;2023-06-10T05:05:08;14.20;;;10.13;;
21786;SDS011;11055;50.870;4.316;2023-06-10T05:07:33;10.80;;;9.70;;
21786;SDS011;11055;50.870;4.316;2023-06-10T05:09:59;12.52;;;10.18;;
21786;SDS011;11055;50.870;4.316;2023-06-10T05:12:26;11.00;;;9.95;;
21786;SDS011;11055;50.870;4.316;2023-06-10T05:14:51;10.48;;;9.40;;
21786;SDS011;11055;50.870;4.316;2023-06-10T05:17:17;14.35;;;10.18;;
21786;SDS011;11055;50.870;4.316;2023-06-10T05:19:43;11.32;;;9.68;;
21786;SDS011;11055;50.870;4.316;2023-06-10T05:22:09;11.70;;;9.90;;
21786;SDS011;11055;50.870;4.316;2023-06-10T05:24:35;16.85;;;10.73;;
21786;SDS011;11055;50.870;4.316;2023-06-10T05:27:00;12.85;;;10.38;;
21786;SDS011;11055;50.870;4.316;2023-06-10T05:29:27;13.85;;;9.98;;
21786;SDS011;11055;50.870;4.316;2023-06-10T05:31:53;15.07;;;10.60;;
21786;SDS011;11055;50.870;4.316;2023-06-10T05:34:21;14.60;;;9.82;;
21786;SDS011;11055;50.870;4.316;2023-06-10T05:36:47;10.77;;;9.70;;
21786;SDS011;11055;50.870;4.316;2023-06-10T05:39:12;11.00;;;9.90;;
21786;SDS011;11055;50.870;4.316;2023-06-10T05:41:38;10.68;;;9.45;;
21786;SDS011;11055;50.870;4.316;2023-06-10T05:44:03;12.98;;;10.43;;
21786;SDS011;11055;50.870;4.316;2023-06-10T05:46:29;11.30;;;9.90;;
21786;SDS011;11055;50.870;4.316;2023-06-10T05:48:55;12.40;;;10.32;;
21786;SDS011;11055;50.870;4.316;2023-06-10T05:51:21;11.60;;;10.50;;
21786;SDS011;11055;50.870;4.316;2023-06-10T05:53:46;11.43;;;9.90;;
21786;SDS011;11055;50.870;4.316;2023-06-10T05:56:13;10.55;;;9.55;;
21786;SDS011;11055;50.870;4.316;2023-06-10T05:58:39;12.68;;;9.73;;
21786;SDS011;11055;50.870;4.316;2023-06-10T06:01:05;12.25;;;10.00;;
21786;SDS011;11055;50.870;4.316;2023-06-10T06:03:30;13.20;;;10.88;;
21786;SDS011;11055;50.870;4.316;2023-06-10T06:05:56;11.77;;;10.25;;
21786;SDS011;11055;50.870;4.316;2023-06-10T06:08:22;11.52;;;9.43;;
21786;SDS011;11055;50.870;4.316;2023-06-10T06:10:47;10.43;;;9.40;;
21786;SDS011;11055;50.870;4.316;2023-06-10T06:13:13;10.18;;;9.07;;
21786;SDS011;11055;50.870;4.316;2023-06-10T06:15:39;10.52;;;9.60;;
21786;SDS011;11055;50.870;4.316;2023-06-10T06:18:05;11.02;;;9.32;;
21786;SDS011;11055;50.870;4.316;2023-06-10T06:20:30;10.52;;;9.10;;
21786;SDS011;11055;50.870;4.316;2023-06-10T06:22:56;10.90;;;8.85;;
21786;SDS011;11055;50.870;4.316;2023-06-10T06:25:22;11.85;;;8.98;;
21786;SDS011;11055;50.870;4.316;2023-06-10T06:27:48;9.88;;;8.88;;
21786;SDS011;11055;50.870;4.316;2023-06-10T06:30:13;9.50;;;8.35;;
21786;SDS011;11055;50.870;4.316;2023-06-10T06:32:39;15.10;;;9.20;;
21786;SDS011;11055;50.870;4.316;2023-06-10T06:35:05;11.63;;;9.18;;
21786;SDS011;11055;50.870;4.316;2023-06-10T06:37:33;8.60;;;7.85;;
21786;SDS011;11055;50.870;4.316;2023-06-10T06:39:58;10.70;;;8.45;;
21786;SDS011;11055;50.870;4.316;2023-06-10T06:42:24;11.57;;;8.93;;
21786;SDS011;11055;50.870;4.316;2023-06-10T06:44:50;9.73;;;7.95;;
21786;SDS011;11055;50.870;4.316;2023-06-10T06:47:16;11.77;;;8.35;;
21786;SDS011;11055;50.870;4.316;2023-06-10T06:49:47;10.07;;;8.18;;
21786;SDS011;11055;50.870;4.316;2023-06-10T06:52:14;9.45;;;8.48;;
21786;SDS011;11055;50.870;4.316;2023-06-10T06:54:40;10.50;;;7.97;;
21786;SDS011;11055;50.870;4.316;2023-06-10T06:57:06;8.93;;;7.82;;
21786;SDS011;11055;50.870;4.316;2023-06-10T06:59:32;9.00;;;7.93;;
21786;SDS011;11055;50.870;4.316;2023-06-10T07:01:58;8.63;;;7.75;;
21786;SDS011;11055;50.870;4.316;2023-06-10T07:04:24;9.07;;;8.27;;
21786;SDS011;11055;50.870;4.316;2023-06-10T07:06:49;8.30;;;7.60;;
21786;SDS011;11055;50.870;4.316;2023-06-10T07:09:18;10.07;;;7.65;;
21786;SDS011;11055;50.870;4.316;2023-06-10T07:11:44;9.15;;;8.18;;
21786;SDS011;11055;50.870;4.316;2023-06-10T07:14:10;11.27;;;7.82;;
21786;SDS011;11055;50.870;4.316;2023-06-10T07:16:35;9.40;;;8.10;;
21786;SDS011;11055;50.870;4.316;2023-06-10T07:19:01;9.13;;;7.50;;
21786;SDS011;11055;50.870;4.316;2023-06-10T07:21:26;8.80;;;7.93;;
21786;SDS011;11055;50.870;4.316;2023-06-10T07:23:53;9.40;;;7.47;;
21786;SDS011;11055;50.870;4.316;2023-06-10T07:26:19;8.70;;;6.95;;
21786;SDS011;11055;50.870;4.316;2023-06-10T07:28:47;10.55;;;7.75;;
21786;SDS011;11055;50.870;4.316;2023-06-10T07:31:13;8.43;;;7.43;;
21786;SDS011;11055;50.870;4.316;2023-06-10T07:33:38;9.10;;;7.45;;
21786;SDS011;11055;50.870;4.316;2023-06-10T07:36:04;8.40;;;7.57;;
21786;SDS011;11055;50.870;4.316;2023-06-10T07:38:31;7.97;;;7.13;;
21786;SDS011;11055;50.870;4.316;2023-06-10T07:40:56;11.48;;;7.65;;
21786;SDS011;11055;50.870;4.316;2023-06-10T07:43:23;9.30;;;7.85;;
21786;SDS011;11055;50.870;4.316;2023-06-10T07:45:49;8.93;;;7.63;;
21786;SDS011;11055;50.870;4.316;2023-06-10T07:48:15;9.63;;;7.88;;
21786;SDS011;11055;50.870;4.316;2023-06-10T07:50:41;8.30;;;7.50;;
21786;SDS011;11055;50.870;4.316;2023-06-10T07:53:06;8.40;;;7.40;;
21786;SDS011;11055;50.870;4.316;2023-06-10T07:55:32;7.65;;;6.85;;
21786;SDS011;11055;50.870;4.316;2023-06-10T07:57:58;9.23;;;7.40;;
21786;SDS011;11055;50.870;4.316;2023-06-10T08:00:24;13.02;;;7.32;;
21786;SDS011;11055;50.870;4.316;2023-06-10T08:02:49;7.57;;;6.90;;
21786;SDS011;11055;50.870;4.316;2023-06-10T08:05:15;9.63;;;6.93;;
21786;SDS011;11055;50.870;4.316;2023-06-10T08:07:41;7.97;;;7.18;;
21786;SDS011;11055;50.870;4.316;2023-06-10T08:10:07;7.95;;;6.90;;
21786;SDS011;11055;50.870;4.316;2023-06-10T08:12:34;7.47;;;6.85;;
21786;SDS011;11055;50.870;4.316;2023-06-10T08:15:00;8.65;;;7.70;;
21786;SDS011;11055;50.870;4.316;2023-06-10T08:17:26;9.48;;;6.90;;
21786;SDS011;11055;50.870;4.316;2023-06-10T08:19:51;7.80;;;7.10;;
21786;SDS011;11055;50.870;4.316;2023-06-10T08:22:17;8.35;;;7.03;;
21786;SDS011;11055;50.870;4.316;2023-06-10T08:24:43;9.20;;;7.63;;
21786;SDS011;11055;50.870;4.316;2023-06-10T08:27:09;7.32;;;6.63;;
21786;SDS011;11055;50.870;4.316;2023-06-10T08:29:35;11.75;;;6.88;;
21786;SDS011;11055;50.870;4.316;2023-06-10T08:32:01;9.52;;;7.10;;
21786;SDS011;11055;50.870;4.316;2023-06-10T08:34:27;7.55;;;6.88;;
21786;SDS011;11055;50.870;4.316;2023-06-10T08:36:53;7.80;;;6.70;;
21786;SDS011;11055;50.870;4.316;2023-06-10T08:39:20;8.70;;;7.10;;
21786;SDS011;11055;50.870;4.316;2023-06-10T08:41:51;7.65;;;6.85;;
21786;SDS011;11055;50.870;4.316;2023-06-10T08:44:42;7.22;;;6.53;;
21786;SDS011;11055;50.870;4.316;2023-06-10T08:47:14;7.63;;;6.88;;
21786;SDS011;11055;50.870;4.316;2023-06-10T08:49:42;8.60;;;6.70;;
21786;SDS011;11055;50.870;4.316;2023-06-10T08:52:11;7.25;;;6.35;;
21786;SDS011;11055;50.870;4.316;2023-06-10T08:54:43;9.25;;;6.90;;
21786;SDS011;11055;50.870;4.316;2023-06-10T08:57:22;7.47;;;6.50;;
21786;SDS011;11055;50.870;4.316;2023-06-10T08:59:48;7.97;;;6.75;;
21786;SDS011;11055;50.870;4.316;2023-06-10T09:02:14;9.70;;;6.03;;
21786;SDS011;11055;50.870;4.316;2023-06-10T09:04:43;8.93;;;5.82;;
21786;SDS011;11055;50.870;4.316;2023-06-10T09:07:10;8.35;;;6.38;;
21786;SDS011;11055;50.870;4.316;2023-06-10T09:09:37;7.72;;;6.07;;
21786;SDS011;11055;50.870;4.316;2023-06-10T09:12:03;9.27;;;6.25;;
21786;SDS011;11055;50.870;4.316;2023-06-10T09:14:29;9.40;;;6.30;;
21786;SDS011;11055;50.870;4.316;2023-06-10T09:16:55;6.93;;;5.90;;
21786;SDS011;11055;50.870;4.316;2023-06-10T09:19:23;7.05;;;6.35;;
21786;SDS011;11055;50.870;4.316;2023-06-10T09:21:50;6.32;;;5.72;;
21786;SDS011;11055;50.870;4.316;2023-06-10T09:24:16;10.23;;;6.25;;
21786;SDS011;11055;50.870;4.316;2023-06-10T09:26:42;6.47;;;5.95;;
21786;SDS011;11055;50.870;4.316;2023-06-10T09:29:08;6.55;;;5.97;;
21786;SDS011;11055;50.870;4.316;2023-06-10T09:31:36;7.85;;;5.72;;
21786;SDS011;11055;50.870;4.316;2023-06-10T09:34:10;7.68;;;5.55;;
21786;SDS011;11055;50.870;4.316;2023-06-10T09:36:37;6.97;;;5.60;;
21786;SDS011;11055;50.870;4.316;2023-06-10T09:39:04;8.20;;;6.32;;
21786;SDS011;11055;50.870;4.316;2023-06-10T09:41:34;7.03;;;6.43;;
21786;SDS011;11055;50.870;4.316;2023-06-10T09:44:00;7.53;;;5.97;;
21786;SDS011;11055;50.870;4.316;2023-06-10T09:46:30;13.18;;;6.97;;
21786;SDS011;11055;50.870;4.316;2023-06-10T09:48:57;7.30;;;6.60;;
21786;SDS011;11055;50.870;4.316;2023-06-10T09:51:23;6.28;;;5.75;;
21786;SDS011;11055;50.870;4.316;2023-06-10T09:53:53;7.68;;;6.28;;
21786;SDS011;11055;50.870;4.316;2023-06-10T09:56:19;8.43;;;6.00;;
21786;SDS011;11055;50.870;4.316;2023-06-10T09:58:45;6.18;;;5.57;;
21786;SDS011;11055;50.870;4.316;2023-06-10T10:01:14;6.53;;;5.63;;
21786;SDS011;11055;50.870;4.316;2023-06-10T10:03:47;6.65;;;5.93;;
21786;SDS011;11055;50.870;4.316;2023-06-10T10:06:14;6.57;;;5.95;;
21786;SDS011;11055;50.870;4.316;2023-06-10T10:08:40;5.95;;;5.32;;
21786;SDS011;11055;50.870;4.316;2023-06-10T10:11:06;10.75;;;5.95;;
21786;SDS011;11055;50.870;4.316;2023-06-10T10:13:33;6.18;;;5.50;;
21786;SDS011;11055;50.870;4.316;2023-06-10T10:16:01;8.23;;;5.75;;
21786;SDS011;11055;50.870;4.316;2023-06-10T10:18:32;6.45;;;5.82;;
21786;SDS011;11055;50.870;4.316;2023-06-10T10:21:04;6.40;;;5.70;;
21786;SDS011;11055;50.870;4.316;2023-06-10T10:23:40;7.32;;;5.35;;
21786;SDS011;11055;50.870;4.316;2023-06-10T10:26:17;5.80;;;4.88;;
21786;SDS011;11055;50.870;4.316;2023-06-10T10:28:51;6.63;;;5.40;;
21786;SDS011;11055;50.870;4.316;2023-06-10T10:31:25;6.13;;;5.55;;
21786;SDS011;11055;50.870;4.316;2023-06-10T10:33:55;9.75;;;5.90;;
21786;SDS011;11055;50.870;4.316;2023-06-10T10:36:24;6.22;;;5.63;;
21786;SDS011;11055;50.870;4.316;2023-06-10T10:38:51;7.70;;;6.97;;
21786;SDS011;11055;50.870;4.316;2023-06-10T10:41:18;8.00;;;6.05;;
21786;SDS011;11055;50.870;4.316;2023-06-10T10:43:45;8.88;;;6.47;;
21786;SDS011;11055;50.870;4.316;2023-06-10T10:46:16;9.45;;;5.63;;
21786;SDS011;11055;50.870;4.316;2023-06-10T10:48:42;6.28;;;5.68;;
21786;SDS011;11055;50.870;4.316;2023-06-10T10:51:09;6.20;;;5.60;;
21786;SDS011;11055;50.870;4.316;2023-06-10T10:53:38;7.78;;;5.50;;
21786;SDS011;11055;50.870;4.316;2023-06-10T10:56:15;6.00;;;5.30;;
21786;SDS011;11055;50.870;4.316;2023-06-10T10:59:01;7.40;;;5.78;;
21786;SDS011;11055;50.870;4.316;2023-06-10T11:01:40;5.13;;;4.65;;
21786;SDS011;11055;50.870;4.316;2023-06-10T11:04:07;7.75;;;6.00;;
21786;SDS011;11055;50.870;4.316;2023-06-10T11:06:34;5.70;;;5.10;;
21786;SDS011;11055;50.870;4.316;2023-06-10T11:09:00;8.98;;;5.45;;
21786;SDS011;11055;50.870;4.316;2023-06-10T11:11:27;5.60;;;5.10;;
21786;SDS011;11055;50.870;4.316;2023-06-10T11:16:29;5.57;;;4.90;;
21786;SDS011;11055;50.870;4.316;2023-06-10T11:19:02;5.95;;;5.05;;
21786;SDS011;11055;50.870;4.316;2023-06-10T11:21:28;10.52;;;6.28;;
21786;SDS011;11055;50.870;4.316;2023-06-10T11:23:54;7.68;;;5.25;;
21786;SDS011;11055;50.870;4.316;2023-06-10T11:31:19;7.57;;;5.32;;
21786;SDS011;11055;50.870;4.316;2023-06-10T11:33:46;8.45;;;5.35;;
21786;SDS011;11055;50.870;4.316;2023-06-10T11:36:13;5.53;;;4.85;;
21786;SDS011;11055;50.870;4.316;2023-06-10T11:38:43;6.80;;;4.70;;
21786;SDS011;11055;50.870;4.316;2023-06-10T11:41:10;5.05;;;4.63;;
21786;SDS011;11055;50.870;4.316;2023-06-10T11:43:37;8.65;;;5.20;;
21786;SDS011;11055;50.870;4.316;2023-06-10T11:46:07;6.50;;;5.45;;
21786;SDS011;11055;50.870;4.316;2023-06-10T11:48:33;6.20;;;5.57;;
21786;SDS011;11055;50.870;4.316;2023-06-10T11:50:59;6.60;;;5.63;;
21786;SDS011;11055;50.870;4.316;2023-06-10T11:53:25;7.25;;;5.93;;
21786;SDS011;11055;50.870;4.316;2023-06-10T11:55:50;6.28;;;5.78;;
21786;SDS011;11055;50.870;4.316;2023-06-10T12:00:44;5.82;;;5.07;;
21786;SDS011;11055;50.870;4.316;2023-06-10T12:03:26;6.78;;;5.80;;
21786;SDS011;11055;50.870;4.316;2023-06-10T12:06:06;8.23;;;5.40;;
21786;SDS011;11055;50.870;4.316;2023-06-10T12:08:32;7.97;;;5.45;;
21786;SDS011;11055;50.870;4.316;2023-06-10T12:11:06;6.80;;;5.95;;
21786;SDS011;11055;50.870;4.316;2023-06-10T12:13:31;7.43;;;5.45;;
21786;SDS011;11055;50.870;4.316;2023-06-10T12:16:09;6.72;;;6.13;;
21786;SDS011;11055;50.870;4.316;2023-06-10T12:18:35;9.95;;;6.25;;
21786;SDS011;11055;50.870;4.316;2023-06-10T12:21:01;7.35;;;6.60;;
21786;SDS011;11055;50.870;4.316;2023-06-10T12:23:28;10.07;;;6.50;;
21786;SDS011;11055;50.870;4.316;2023-06-10T12:25:54;9.90;;;6.20;;
21786;SDS011;11055;50.870;4.316;2023-06-10T12:28:21;6.30;;;5.80;;
21786;SDS011;11055;50.870;4.316;2023-06-10T12:30:47;7.07;;;6.47;;
21786;SDS011;11055;50.870;4.316;2023-06-10T12:33:21;6.45;;;5.90;;
21786;SDS011;11055;50.870;4.316;2023-06-10T12:35:50;7.43;;;6.05;;
21786;SDS011;11055;50.870;4.316;2023-06-10T12:38:24;8.15;;;6.47;;
21786;SDS011;11055;50.870;4.316;2023-06-10T12:40:54;6.88;;;5.80;;
21786;SDS011;11055;50.870;4.316;2023-06-10T12:43:26;7.75;;;6.40;;
21786;SDS011;11055;50.870;4.316;2023-06-10T12:45:51;10.05;;;6.30;;
21786;SDS011;11055;50.870;4.316;2023-06-10T12:48:18;6.22;;;5.63;;
21786;SDS011;11055;50.870;4.316;2023-06-10T12:50:55;8.10;;;6.43;;
21786;SDS011;11055;50.870;4.316;2023-06-10T12:53:23;11.68;;;7.28;;
21786;SDS011;11055;50.870;4.316;2023-06-10T12:55:51;10.98;;;6.20;;
21786;SDS011;11055;50.870;4.316;2023-06-10T12:58:19;7.50;;;6.00;;
21786;SDS011;11055;50.870;4.316;2023-06-10T13:00:45;8.05;;;5.97;;
21786;SDS011;11055;50.870;4.316;2023-06-10T13:03:11;6.30;;;5.72;;
21786;SDS011;11055;50.870;4.316;2023-06-10T13:05:40;6.63;;;5.80;;
21786;SDS011;11055;50.870;4.316;2023-06-10T13:08:06;6.15;;;5.63;;
21786;SDS011;11055;50.870;4.316;2023-06-10T13:10:35;6.85;;;6.20;;
21786;SDS011;11055;50.870;4.316;2023-06-10T13:13:01;7.40;;;5.63;;
21786;SDS011;11055;50.870;4.316;2023-06-10T13:15:30;6.80;;;5.95;;
21786;SDS011;11055;50.870;4.316;2023-06-10T13:17:56;6.90;;;5.97;;
21786;SDS011;11055;50.870;4.316;2023-06-10T13:20:22;7.15;;;6.45;;
21786;SDS011;11055;50.870;4.316;2023-06-10T13:22:50;10.48;;;6.45;;
21786;SDS011;11055;50.870;4.316;2023-06-10T13:25:17;9.68;;;6.03;;
21786;SDS011;11055;50.870;4.316;2023-06-10T13:27:43;9.77;;;5.90;;
21786;SDS011;11055;50.870;4.316;2023-06-10T13:30:09;10.40;;;6.72;;
21786;SDS011;11055;50.870;4.316;2023-06-10T13:32:36;9.70;;;6.40;;
21786;SDS011;11055;50.870;4.316;2023-06-10T13:35:02;8.20;;;6.00;;
21786;SDS011;11055;50.870;4.316;2023-06-10T13:37:29;6.88;;;6.28;;
21786;SDS011;11055;50.870;4.316;2023-06-10T13:39:55;7.25;;;6.22;;
21786;SDS011;11055;50.870;4.316;2023-06-10T13:42:22;8.45;;;6.30;;
21786;SDS011;11055;50.870;4.316;2023-06-10T13:44:47;8.90;;;6.25;;
21786;SDS011;11055;50.870;4.316;2023-06-10T13:47:14;6.90;;;6.20;;
21786;SDS011;11055;50.870;4.316;2023-06-10T13:49:41;8.95;;;6.32;;
21786;SDS011;11055;50.870;4.316;2023-06-10T13:52:07;9.60;;;6.10;;
21786;SDS011;11055;50.870;4.316;2023-06-10T13:54:33;9.15;;;6.60;;
21786;SDS011;11055;50.870;4.316;2023-06-10T13:57:02;8.02;;;5.68;;
21786;SDS011;11055;50.870;4.316;2023-06-10T13:59:28;8.82;;;7.28;;
21786;SDS011;11055;50.870;4.316;2023-06-10T14:01:54;8.30;;;6.13;;
21786;SDS011;11055;50.870;4.316;2023-06-10T14:04:20;7.32;;;6.10;;
21786;SDS011;11055;50.870;4.316;2023-06-10T14:06:46;11.68;;;5.75;;
21786;SDS011;11055;50.870;4.316;2023-06-10T14:09:13;7.20;;;6.07;;
21786;SDS011;11055;50.870;4.316;2023-06-10T14:11:38;6.72;;;6.20;;
21786;SDS011;11055;50.870;4.316;2023-06-10T14:14:04;8.95;;;6.00;;
21786;SDS011;11055;50.870;4.316;2023-06-10T14:16:30;8.27;;;7.05;;
21786;SDS011;11055;50.870;4.316;2023-06-10T14:18:56;9.57;;;8.18;;
21786;SDS011;11055;50.870;4.316;2023-06-10T14:21:21;6.95;;;6.20;;
21786;SDS011;11055;50.870;4.316;2023-06-10T14:23:47;8.65;;;6.07;;
21786;SDS011;11055;50.870;4.316;2023-06-10T14:26:14;7.15;;;6.45;;
21786;SDS011;11055;50.870;4.316;2023-06-10T14:28:41;8.07;;;6.90;;
21786;SDS011;11055;50.870;4.316;2023-06-10T14:31:07;10.00;;;7.05;;
21786;SDS011;11055;50.870;4.316;2023-06-10T14:33:33;7.75;;;6.35;;
21786;SDS011;11055;50.870;4.316;2023-06-10T14:35:59;9.20;;;6.40;;
21786;SDS011;11055;50.870;4.316;2023-06-10T14:38:25;6.18;;;5.57;;
21786;SDS011;11055;50.870;4.316;2023-06-10T14:40:50;6.93;;;6.43;;
21786;SDS011;11055;50.870;4.316;2023-06-10T14:43:17;6.75;;;5.88;;
21786;SDS011;11055;50.870;4.316;2023-06-10T14:45:43;8.48;;;6.20;;
21786;SDS011;11055;50.870;4.316;2023-06-10T14:48:10;6.85;;;6.35;;
21786;SDS011;11055;50.870;4.316;2023-06-10T14:50:36;8.45;;;6.00;;
21786;SDS011;11055;50.870;4.316;2023-06-10T14:53:02;9.10;;;6.18;;
21786;SDS011;11055;50.870;4.316;2023-06-10T14:55:28;7.72;;;6.22;;
21786;SDS011;11055;50.870;4.316;2023-06-10T14:57:53;8.18;;;6.18;;
21786;SDS011;11055;50.870;4.316;2023-06-10T15:00:20;8.15;;;6.50;;